Sea Rider — WDI2682 — position and weather

sailwx.info

Track history (hours):
 
Tides and Currents Weather Stations Pressure Air Temp Water Temp Dewpoint Dewpoint Depression Visibility Wind Speed Wind Dir Waves Ship Positions

Sea Rider

Owner: Versaggi Shrimp Corp, Tampa, FL. More information available from US FCC via Universal Licensing System and Coast Guard Vessel Documentation Center.

Last reported at 2017-Dec-02 20:08 UTC. Time now 2017-Dec-13 07:11 UTC.
Position N 27°48' W 082°30'.
Warning: this ship's position is 10 days out of date.

MMSI: 367680650.

Date/timePositionNaut miles runAvg speedWind from/ knotsBaromVisibWave heightAir tempDewpointWater temp
2017-Dec-02 20:08N 27°48' W 082°30'1 9.4
2017-Dec-02 20:00N 27°48' W 082°29'4 8.4
2017-Dec-02 19:30N 27°52' W 082°27'4 7.8
2017-Dec-02 19:00N 27°55' W 082°26'0 0.6
2017-Dec-02 18:30N 27°56' W 082°26'  
2017-Nov-29 16:40N 27°56' W 082°26'0 0.0
2017-Nov-29 16:30N 27°56' W 082°26'0 0.0
2017-Nov-29 16:00N 27°56' W 082°26'0 0.0
2017-Nov-29 15:30N 27°56' W 082°26'0 0.0
2017-Nov-29 15:00N 27°56' W 082°26'0 0.0
2017-Nov-29 14:30N 27°56' W 082°26'0 0.0
2017-Nov-29 14:00N 27°56' W 082°26'0 0.0
2017-Nov-29 13:30N 27°56' W 082°26'0 0.0
2017-Nov-29 13:00N 27°56' W 082°26'0 0.0
2017-Nov-29 12:30N 27°56' W 082°26'0 0.0
2017-Nov-29 12:00N 27°56' W 082°26'0 0.0
2017-Nov-29 11:30N 27°56' W 082°26'0 0.0
2017-Nov-29 11:00N 27°56' W 082°26'0 0.0
2017-Nov-29 10:30N 27°56' W 082°26'0 0.0
2017-Nov-29 10:00N 27°56' W 082°26'0 0.0
2017-Nov-29 09:30N 27°56' W 082°26'0 0.0
2017-Nov-29 09:00N 27°56' W 082°26'0 0.0
2017-Nov-29 08:30N 27°56' W 082°26'0 0.0
2017-Nov-29 08:00N 27°56' W 082°26'0 0.0
2017-Nov-29 07:30N 27°56' W 082°26'0 0.0
2017-Nov-29 07:00N 27°56' W 082°26'0 0.0
2017-Nov-29 06:30N 27°56' W 082°26'0 0.0
2017-Nov-29 06:00N 27°56' W 082°26'0 0.0
2017-Nov-29 05:30N 27°56' W 082°26'0 0.0
2017-Nov-29 05:00N 27°56' W 082°26'0 0.0
2017-Nov-29 04:30N 27°56' W 082°26'0 0.0
2017-Nov-29 04:00N 27°56' W 082°26'0 0.0
2017-Nov-29 03:30N 27°56' W 082°26'0 0.0
2017-Nov-29 03:00N 27°56' W 082°26'0 0.0
2017-Nov-29 02:30N 27°56' W 082°26'0 0.0
2017-Nov-29 02:00N 27°56' W 082°26'0 0.0
2017-Nov-29 01:30N 27°56' W 082°26'0 0.0
2017-Nov-29 01:00N 27°56' W 082°26'0 0.0
2017-Nov-29 00:30N 27°56' W 082°26'0 0.0
2017-Nov-29 00:00N 27°56' W 082°26'0 0.0
2017-Nov-28 23:30N 27°56' W 082°26'0 0.0
2017-Nov-28 23:00N 27°56' W 082°26'0 0.0
2017-Nov-28 22:30N 27°56' W 082°26'0 0.0
2017-Nov-28 22:00N 27°56' W 082°26'0 0.0
2017-Nov-28 21:30N 27°56' W 082°26'0 0.0
2017-Nov-28 21:00N 27°56' W 082°26'0 0.0
2017-Nov-28 20:30N 27°56' W 082°26'0 0.0
2017-Nov-28 20:00N 27°56' W 082°26'0 0.0
2017-Nov-28 19:30N 27°56' W 082°26'0 0.0
2017-Nov-28 19:00N 27°56' W 082°26'1 1.8
2017-Nov-28 18:30N 27°55' W 082°26'1 1.8
2017-Nov-28 18:00N 27°56' W 082°26'0 0.0
2017-Nov-28 17:30N 27°56' W 082°26'0 0.0
2017-Nov-28 17:00N 27°56' W 082°26'0 0.0
2017-Nov-28 16:30N 27°56' W 082°26'0 0.0
2017-Nov-28 16:00N 27°56' W 082°26'0 0.0
2017-Nov-28 15:00N 27°56' W 082°26'0 0.0
2017-Nov-28 14:30N 27°56' W 082°26'0 0.0
2017-Nov-28 14:00N 27°56' W 082°26'0 0.0
2017-Nov-28 13:30N 27°56' W 082°26'0 0.0
2017-Nov-28 11:21N 27°56' W 082°26'1 2.0
2017-Nov-28 11:00N 27°55' W 082°26'4 8.1
2017-Nov-28 10:30N 27°51' W 082°27'4 8.1
2017-Nov-28 09:59N 27°48' W 082°29'2 4.3
2017-Nov-28 09:29N 27°47' W 082°31'  
Track history (hours):
 
Tides and Currents Weather Stations Pressure Air Temp Water Temp Dewpoint Dewpoint Depression Visibility Wind Speed Wind Dir Waves Ship Positions

Sea Rider

Owner: Versaggi Shrimp Corp, Tampa, FL. More information available from US FCC via Universal Licensing System and Coast Guard Vessel Documentation Center.

Last reported at 2017-Dec-02 20:08 UTC. Time now 2017-Dec-13 07:11 UTC.
Position N 27°48' W 082°30'.
Warning: this ship's position is 10 days out of date.

MMSI: 367680650.

Date/timePositionNaut miles runAvg speedWind from/ knotsBaromVisibWave heightAir tempDewpointWater temp
2017-Dec-02 20:08N 27°48' W 082°30'1 9.4
2017-Dec-02 20:00N 27°48' W 082°29'4 8.4
2017-Dec-02 19:30N 27°52' W 082°27'4 7.8
2017-Dec-02 19:00N 27°55' W 082°26'0 0.6
2017-Dec-02 18:30N 27°56' W 082°26'  
2017-Nov-29 16:40N 27°56' W 082°26'0 0.0
2017-Nov-29 16:30N 27°56' W 082°26'0 0.0
2017-Nov-29 16:00N 27°56' W 082°26'0 0.0
2017-Nov-29 15:30N 27°56' W 082°26'0 0.0
2017-Nov-29 15:00N 27°56' W 082°26'0 0.0
2017-Nov-29 14:30N 27°56' W 082°26'0 0.0
2017-Nov-29 14:00N 27°56' W 082°26'0 0.0
2017-Nov-29 13:30N 27°56' W 082°26'0 0.0
2017-Nov-29 13:00N 27°56' W 082°26'0 0.0
2017-Nov-29 12:30N 27°56' W 082°26'0 0.0
2017-Nov-29 12:00N 27°56' W 082°26'0 0.0
2017-Nov-29 11:30N 27°56' W 082°26'0 0.0
2017-Nov-29 11:00N 27°56' W 082°26'0 0.0
2017-Nov-29 10:30N 27°56' W 082°26'0 0.0
2017-Nov-29 10:00N 27°56' W 082°26'0 0.0
2017-Nov-29 09:30N 27°56' W 082°26'0 0.0
2017-Nov-29 09:00N 27°56' W 082°26'0 0.0
2017-Nov-29 08:30N 27°56' W 082°26'0 0.0
2017-Nov-29 08:00N 27°56' W 082°26'0 0.0
2017-Nov-29 07:30N 27°56' W 082°26'0 0.0
2017-Nov-29 07:00N 27°56' W 082°26'0 0.0
2017-Nov-29 06:30N 27°56' W 082°26'0 0.0
2017-Nov-29 06:00N 27°56' W 082°26'0 0.0
2017-Nov-29 05:30N 27°56' W 082°26'0 0.0
2017-Nov-29 05:00N 27°56' W 082°26'0 0.0
2017-Nov-29 04:30N 27°56' W 082°26'0 0.0
2017-Nov-29 04:00N 27°56' W 082°26'0 0.0
2017-Nov-29 03:30N 27°56' W 082°26'0 0.0
2017-Nov-29 03:00N 27°56' W 082°26'0 0.0
2017-Nov-29 02:30N 27°56' W 082°26'0 0.0
2017-Nov-29 02:00N 27°56' W 082°26'0 0.0
2017-Nov-29 01:30N 27°56' W 082°26'0 0.0
2017-Nov-29 01:00N 27°56' W 082°26'0 0.0
2017-Nov-29 00:30N 27°56' W 082°26'0 0.0
2017-Nov-29 00:00N 27°56' W 082°26'0 0.0
2017-Nov-28 23:30N 27°56' W 082°26'0 0.0
2017-Nov-28 23:00N 27°56' W 082°26'0 0.0
2017-Nov-28 22:30N 27°56' W 082°26'0 0.0
2017-Nov-28 22:00N 27°56' W 082°26'0 0.0
2017-Nov-28 21:30N 27°56' W 082°26'0 0.0
2017-Nov-28 21:00N 27°56' W 082°26'0 0.0
2017-Nov-28 20:30N 27°56' W 082°26'0 0.0
2017-Nov-28 20:00N 27°56' W 082°26'0 0.0
2017-Nov-28 19:30N 27°56' W 082°26'0 0.0
2017-Nov-28 19:00N 27°56' W 082°26'1 1.8
2017-Nov-28 18:30N 27°55' W 082°26'1 1.8
2017-Nov-28 18:00N 27°56' W 082°26'0 0.0
2017-Nov-28 17:30N 27°56' W 082°26'0 0.0
2017-Nov-28 17:00N 27°56' W 082°26'0 0.0
2017-Nov-28 16:30N 27°56' W 082°26'0 0.0
2017-Nov-28 16:00N 27°56' W 082°26'0 0.0
2017-Nov-28 15:00N 27°56' W 082°26'0 0.0
2017-Nov-28 14:30N 27°56' W 082°26'0 0.0
2017-Nov-28 14:00N 27°56' W 082°26'0 0.0
2017-Nov-28 13:30N 27°56' W 082°26'0 0.0
2017-Nov-28 11:21N 27°56' W 082°26'1 2.0
2017-Nov-28 11:00N 27°55' W 082°26'4 8.1
2017-Nov-28 10:30N 27°51' W 082°27'4 8.1
2017-Nov-28 09:59N 27°48' W 082°29'2 4.3
2017-Nov-28 09:29N 27°47' W 082°31'  

Dump ship's entire track history